Time;durP1;ratioP1;P1;durP2;ratioP2;P2;SDS_P1;SDS_P2;PMS_P1;PMS_P2;Temp;Humidity;BMP_temperature;BMP_pressure;BME280_temperature;BME280_humidity;BME280_pressure;Samples;Min_cycle;Max_cycle;Signal;HPM_P1;HPM_P2
2022/06/04 00:00:03;;;;;;;;;;;;;;;;;;5054513;28;19905;-76
2022/06/04 00:02:28;;;;;;;;;;;;;;;;;;5053545;28;19913;-76
2022/06/04 00:04:54;;;;;;;;;;;;;;;;;;5054935;28;19904;-76
2022/06/04 00:07:20;;;;;;;;;;;;;;;;;;5052934;28;20343;-77
2022/06/04 00:15:29;;;;;;;;;;;;;;;;;;5052991;28;19912;-77
2022/06/04 00:15:29;;;;;;;;;;;;;;;;;;5054193;28;19912;-77
2022/06/04 00:17:55;;;;;;;;;;;;;;;;;;5054443;28;19932;-75
2022/06/04 00:20:21;;;;;;;;;;;;;;;;;;5053165;28;20372;-78
2022/06/04 00:22:47;;;;;;;;;;;;;;;;;;5053700;28;20062;-78
2022/06/04 00:25:13;;;;;;;;;;;;;;;;;;5054070;28;19995;-77
2022/06/04 00:27:38;;;;;;;;;;;;;;;;;;5052828;28;19904;-75
2022/06/04 00:30:05;;;;;;;;;;;;;;;;;;5053829;28;20289;-77
2022/06/04 00:32:31;;;;;;;;;;;;;;;;;;5052820;28;20262;-75
2022/06/04 00:34:57;;;;;;;;;;;;;;;;;;5038542;28;20354;-76
2022/06/04 00:37:23;;;;;;;;;;;;;;;;;;5053963;28;19905;-78
2022/06/04 00:39:50;;;;;;;;;;;;;;;;;;5061754;28;19905;-76
2022/06/04 00:42:18;;;;;;;;;;;;;;;;;;5066519;28;20362;-77
2022/06/04 00:44:43;;;;;;;;;;;;;;;;;;5059282;28;19905;-77
2022/06/04 00:47:10;;;;;;;;;;;;;;;;;;5053106;28;19912;-78
2022/06/04 00:49:35;;;;;;;;;;;;;;;;;;5055499;28;19912;-77
2022/06/04 00:52:01;;;;;;;;;;;;;;;;;;5053260;28;19905;-78
2022/06/04 00:54:27;;;;;;;;;;;;;;;;;;5044015;28;19913;-78
2022/06/04 00:56:53;;;;;;;;;;;;;;;;;;5048227;28;20003;-78
2022/06/04 00:59:19;;;;;;;;;;;;;;;;;;5059969;28;19904;-76
2022/06/04 01:01:45;;;;;;;;;;;;;;;;;;5065105;28;19964;-76
2022/06/04 01:04:11;;;;;;;;;;;;;;;;;;5058921;28;19959;-75
2022/06/04 01:06:39;;;;;;;;;;;;;;;;;;5057556;28;19928;-77
2022/06/04 01:09:05;;;;;;;;;;;;;;;;;;5056006;28;19913;-78
2022/06/04 01:11:31;;;;;;;;;;;;;;;;;;5062292;28;19927;-77
2022/06/04 01:13:57;;;;;;;;;;;;;;;;;;5056325;28;20003;-76
2022/06/04 01:16:22;;;;;;;;;;;;;;;;;;5057402;28;19904;-74
2022/06/04 01:18:48;;;;;;;;;;;;;;;;;;5056376;28;19911;-77
2022/06/04 01:21:14;;;;;;;;;;;;;;;;;;5054414;28;19905;-75
2022/06/04 01:23:40;;;;;;;;;;;;;;;;;;5054907;28;19912;-76
2022/06/04 01:26:07;;;;;;;;;;;;;;;;;;5056461;28;19905;-76
2022/06/04 01:28:33;;;;;;;;;;;;;;;;;;5055774;28;19966;-76
2022/06/04 01:30:59;;;;;;;;;;;;;;;;;;5054188;28;20352;-77
2022/06/04 01:33:25;;;;;;;;;;;;;;;;;;5062261;28;19904;-76
2022/06/04 01:35:51;;;;;;;;;;;;;;;;;;5062538;28;19908;-76
2022/06/04 01:38:17;;;;;;;;;;;;;;;;;;5054169;28;19904;-77
2022/06/04 01:43:27;;;;;;;;;;;;;;;;;;5052306;28;19920;-78
2022/06/04 01:45:53;;;;;;;;;;;;;;;;;;5055639;28;20259;-78
2022/06/04 01:48:19;;;;;;;;;;;;;;;;;;5057101;28;19905;-76
2022/06/04 01:50:45;;;;;;;;;;;;;;;;;;5055202;28;19904;-76
2022/06/04 01:53:11;;;;;;;;;;;;;;;;;;5052375;28;19928;-76
2022/06/04 01:55:37;;;;;;;;;;;;;;;;;;5051720;28;19983;-78
2022/06/04 01:58:02;;;;;;;;;;;;;;;;;;5052144;28;19905;-76
2022/06/04 02:00:28;;;;;;;;;;;;;;;;;;5052363;28;19905;-77
2022/06/04 02:02:54;;;;;;;;;;;;;;;;;;5052338;28;20287;-77
2022/06/04 02:05:20;;;;;;;;;;;;;;;;;;5051521;28;19905;-78
2022/06/04 02:07:46;;;;;;;;;;;;;;;;;;5051704;28;19905;-77
2022/06/04 02:10:12;;;;;;;;;;;;;;;;;;5040456;28;19905;-77
2022/06/04 02:12:38;;;;;;;;;;;;;;;;;;5064756;28;19905;-79
2022/06/04 02:15:04;;;;;;;;;;;;;;;;;;5043283;28;19905;-78
2022/06/04 02:17:30;;;;;;;;;;;;;;;;;;5054083;28;19950;-78
2022/06/04 02:19:56;;;;;;;;;;;;;;;;;;5053202;28;19947;-77
2022/06/04 02:22:22;;;;;;;;;;;;;;;;;;5052795;28;20419;-80
2022/06/04 02:24:48;;;;;;;;;;;;;;;;;;5051827;28;19909;-78
2022/06/04 02:27:14;;;;;;;;;;;;;;;;;;5052552;28;19912;-76
2022/06/04 02:29:40;;;;;;;;;;;;;;;;;;5051980;28;19928;-78
2022/06/04 02:32:05;;;;;;;;;;;;;;;;;;5064664;28;19904;-77
2022/06/04 02:34:32;;;;;;;;;;;;;;;;;;5061340;28;20239;-77
2022/06/04 02:36:58;;;;;;;;;;;;;;;;;;5055702;28;20417;-77
2022/06/04 02:39:24;;;;;;;;;;;;;;;;;;5055123;28;19908;-78
2022/06/04 02:41:50;;;;;;;;;;;;;;;;;;5048654;28;19952;-79
2022/06/04 02:44:16;;;;;;;;;;;;;;;;;;5048405;28;20279;-80
2022/06/04 02:46:44;;;;;;;;;;;;;;;;;;5059701;28;19905;-78
2022/06/04 02:49:10;;;;;;;;;;;;;;;;;;5061283;28;19905;-75
2022/06/04 02:51:36;;;;;;;;;;;;;;;;;;5061533;28;20003;-75
2022/06/04 02:54:02;;;;;;;;;;;;;;;;;;5059322;28;19943;-75
2022/06/04 02:56:28;;;;;;;;;;;;;;;;;;5055365;28;19904;-75
2022/06/04 02:58:53;;;;;;;;;;;;;;;;;;5056198;28;19912;-75
2022/06/04 03:01:19;;;;;;;;;;;;;;;;;;5055788;28;19905;-77
2022/06/04 03:03:45;;;;;;;;;;;;;;;;;;5055053;28;20290;-76
2022/06/04 03:06:12;;;;;;;;;;;;;;;;;;5054713;28;19905;-76
2022/06/04 03:08:38;;;;;;;;;;;;;;;;;;5055871;28;19904;-76
2022/06/04 03:11:04;;;;;;;;;;;;;;;;;;5070165;28;19911;-77
2022/06/04 03:13:30;;;;;;;;;;;;;;;;;;5056031;28;19909;-77
2022/06/04 03:15:56;;;;;;;;;;;;;;;;;;5056185;28;19970;-76
2022/06/04 03:18:21;;;;;;;;;;;;;;;;;;5054531;28;20417;-77
2022/06/04 03:20:47;;;;;;;;;;;;;;;;;;5054320;28;20339;-77
2022/06/04 03:23:13;;;;;;;;;;;;;;;;;;5056099;28;19913;-78
2022/06/04 03:25:39;;;;;;;;;;;;;;;;;;5055827;28;20351;-78
2022/06/04 03:28:05;;;;;;;;;;;;;;;;;;5055393;28;19905;-77
2022/06/04 03:30:31;;;;;;;;;;;;;;;;;;5053960;28;19905;-77
2022/06/04 03:32:57;;;;;;;;;;;;;;;;;;5058306;28;20000;-79
2022/06/04 03:35:23;;;;;;;;;;;;;;;;;;5066443;28;19912;-78
2022/06/04 03:37:49;;;;;;;;;;;;;;;;;;5055266;28;19912;-77
2022/06/04 03:40:15;;;;;;;;;;;;;;;;;;5053666;28;19905;-76
2022/06/04 03:42:41;;;;;;;;;;;;;;;;;;5055328;28;19923;-77
2022/06/04 03:45:07;;;;;;;;;;;;;;;;;;5053376;28;19904;-77
2022/06/04 03:47:36;;;;;;;;;;;;;;;;;;5066181;28;20735;-76
2022/06/04 03:50:02;;;;;;;;;;;;;;;;;;5056403;28;19911;-75
2022/06/04 03:52:28;;;;;;;;;;;;;;;;;;5054726;28;19905;-78
2022/06/04 03:54:54;;;;;;;;;;;;;;;;;;5054790;28;19936;-76
2022/06/04 03:57:38;;;;;;;;;;;;;;;;;;5054929;28;19995;-76
2022/06/04 04:00:03;;;;;;;;;;;;;;;;;;5055393;28;19951;-76
2022/06/04 04:02:29;;;;;;;;;;;;;;;;;;5054818;28;19913;-76
2022/06/04 04:04:55;;;;;;;;;;;;;;;;;;5053676;28;20347;-76
2022/06/04 04:07:21;;;;;;;;;;;;;;;;;;5055079;28;19905;-76
2022/06/04 04:09:47;;;;;;;;;;;;;;;;;;5054242;28;19905;-76
2022/06/04 04:12:13;;;;;;;;;;;;;;;;;;5054694;28;19909;-75
2022/06/04 04:14:39;;;;;;;;;;;;;;;;;;5056155;28;19905;-77
2022/06/04 04:17:05;;;;;;;;;;;;;;;;;;5055832;28;19930;-76
2022/06/04 04:19:31;;;;;;;;;;;;;;;;;;5040920;28;20387;-76
2022/06/04 04:21:57;;;;;;;;;;;;;;;;;;5053466;28;19912;-76
2022/06/04 04:24:23;;;;;;;;;;;;;;;;;;5053891;28;20405;-75
2022/06/04 04:26:49;;;;;;;;;;;;;;;;;;5054982;28;20351;-76
2022/06/04 04:29:15;;;;;;;;;;;;;;;;;;5055769;28;19959;-75
2022/06/04 04:31:41;;;;;;;;;;;;;;;;;;5055449;28;20306;-76
2022/06/04 04:34:06;;;;;;;;;;;;;;;;;;5055727;28;20245;-76
2022/06/04 04:36:32;;;;;;;;;;;;;;;;;;5055295;28;19905;-76
2022/06/04 04:38:58;;;;;;;;;;;;;;;;;;5053030;28;19951;-76
2022/06/04 04:41:24;;;;;;;;;;;;;;;;;;5052220;28;19925;-76
2022/06/04 04:43:50;;;;;;;;;;;;;;;;;;5052649;28;20287;-76
2022/06/04 04:46:16;;;;;;;;;;;;;;;;;;5055488;28;19912;-76
2022/06/04 04:48:42;;;;;;;;;;;;;;;;;;5061504;28;19912;-76
2022/06/04 04:51:08;;;;;;;;;;;;;;;;;;5054139;28;19912;-76
2022/06/04 04:53:34;;;;;;;;;;;;;;;;;;5057106;28;19912;-77
2022/06/04 04:56:00;;;;;;;;;;;;;;;;;;5052514;28;20363;-77
2022/06/04 04:58:26;;;;;;;;;;;;;;;;;;5053429;28;20295;-76
2022/06/04 05:00:52;;;;;;;;;;;;;;;;;;5055392;28;20385;-76
2022/06/04 05:03:18;;;;;;;;;;;;;;;;;;5042731;28;20363;-76
2022/06/04 05:05:44;;;;;;;;;;;;;;;;;;5051813;28;19951;-76
2022/06/04 05:08:10;;;;;;;;;;;;;;;;;;5055493;28;19912;-76
2022/06/04 05:10:36;;;;;;;;;;;;;;;;;;5052861;28;19911;-77
2022/06/04 05:13:02;;;;;;;;;;;;;;;;;;5053948;28;19911;-76
2022/06/04 05:15:28;;;;;;;;;;;;;;;;;;5054309;28;20436;-76
2022/06/04 05:17:54;;;;;;;;;;;;;;;;;;5054170;28;20295;-76
2022/06/04 05:20:20;;;;;;;;;;;;;;;;;;5053395;28;19911;-76
2022/06/04 05:22:46;;;;;;;;;;;;;;;;;;5053077;28;20264;-75
2022/06/04 05:25:11;;;;;;;;;;;;;;;;;;5054350;28;20373;-75
2022/06/04 05:27:37;;;;;;;;;;;;;;;;;;5054780;28;19948;-76
2022/06/04 05:30:03;;;;;;;;;;;;;;;;;;5054876;28;19999;-76
2022/06/04 05:32:29;;;;;;;;;;;;;;;;;;5054492;28;19905;-77
2022/06/04 05:34:55;;;;;;;;;;;;;;;;;;5053793;28;19992;-78
2022/06/04 05:37:21;;;;;;;;;;;;;;;;;;5054529;28;20236;-77
2022/06/04 05:39:47;;;;;;;;;;;;;;;;;;5054569;28;19912;-76
2022/06/04 05:42:13;;;;;;;;;;;;;;;;;;5052789;28;19917;-77
2022/06/04 05:44:39;;;;;;;;;;;;;;;;;;5056369;28;19912;-76
2022/06/04 05:47:05;;;;;;;;;;;;;;;;;;5059271;28;19912;-76
2022/06/04 05:49:31;;;;;;;;;;;;;;;;;;5053742;28;21214;-77
2022/06/04 05:51:56;;;;;;;;;;;;;;;;;;5055009;28;19980;-76
2022/06/04 05:54:22;;;;;;;;;;;;;;;;;;5054733;28;19904;-76
2022/06/04 05:56:48;;;;;;;;;;;;;;;;;;5054977;28;20318;-76
2022/06/04 05:59:14;;;;;;;;;;;;;;;;;;5054466;28;19905;-76
2022/06/04 06:01:40;;;;;;;;;;;;;;;;;;5055284;28;19932;-76
2022/06/04 06:04:06;;;;;;;;;;;;;;;;;;5055398;28;19935;-76
2022/06/04 06:06:32;;;;;;;;;;;;;;;;;;5056800;28;19905;-78
2022/06/04 06:08:58;;;;;;;;;;;;;;;;;;5055009;28;20256;-78
2022/06/04 06:11:24;;;;;;;;;;;;;;;;;;5050782;28;19913;-79
2022/06/04 06:13:50;;;;;;;;;;;;;;;;;;5050741;28;20351;-77
2022/06/04 06:16:16;;;;;;;;;;;;;;;;;;5052377;28;20343;-78
2022/06/04 06:18:42;;;;;;;;;;;;;;;;;;5053020;28;19905;-78
2022/06/04 06:21:08;;;;;;;;;;;;;;;;;;5052814;28;19905;-78
2022/06/04 06:23:34;;;;;;;;;;;;;;;;;;5050773;28;19958;-78
2022/06/04 06:26:01;;;;;;;;;;;;;;;;;;5051813;28;20263;-79
2022/06/04 06:28:27;;;;;;;;;;;;;;;;;;5067353;28;19950;-79
2022/06/04 06:30:53;;;;;;;;;;;;;;;;;;5060885;28;19905;-79
2022/06/04 06:33:19;;;;;;;;;;;;;;;;;;5051301;28;19904;-78
2022/06/04 06:35:44;;;;;;;;;;;;;;;;;;5052018;28;19905;-79
2022/06/04 06:38:10;;;;;;;;;;;;;;;;;;5052375;28;19912;-79
2022/06/04 06:40:36;;;;;;;;;;;;;;;;;;5051832;28;19905;-78
2022/06/04 06:43:02;;;;;;;;;;;;;;;;;;5051484;28;19919;-78
2022/06/04 06:45:30;;;;;;;;;;;;;;;;;;5050791;28;19927;-78
2022/06/04 06:47:57;;;;;;;;;;;;;;;;;;5069062;28;19993;-77
2022/06/04 06:50:23;;;;;;;;;;;;;;;;;;5051429;28;19913;-78
2022/06/04 06:52:49;;;;;;;;;;;;;;;;;;5050641;28;20481;-79
2022/06/04 06:55:15;;;;;;;;;;;;;;;;;;5052399;28;19904;-79
2022/06/04 06:57:41;;;;;;;;;;;;;;;;;;5052120;28;19951;-79
2022/06/04 07:00:07;;;;;;;;;;;;;;;;;;5050918;28;19951;-78
2022/06/04 07:02:33;;;;;;;;;;;;;;;;;;5039922;28;20023;-78
2022/06/04 07:04:59;;;;;;;;;;;;;;;;;;5054029;28;19905;-79
2022/06/04 07:07:25;;;;;;;;;;;;;;;;;;5052274;28;19911;-78
2022/06/04 07:09:51;;;;;;;;;;;;;;;;;;5052007;28;19905;-77
2022/06/04 07:12:17;;;;;;;;;;;;;;;;;;5052649;28;19905;-78
2022/06/04 07:14:43;;;;;;;;;;;;;;;;;;5052548;28;19904;-78
2022/06/04 07:17:09;;;;;;;;;;;;;;;;;;5054319;28;19904;-77
2022/06/04 07:19:35;;;;;;;;;;;;;;;;;;5040486;28;19905;-78
2022/06/04 07:22:01;;;;;;;;;;;;;;;;;;5056132;28;19927;-78
2022/06/04 07:24:27;;;;;;;;;;;;;;;;;;5054105;28;19912;-78
2022/06/04 07:26:53;;;;;;;;;;;;;;;;;;5055648;28;19959;-78
2022/06/04 07:29:19;;;;;;;;;;;;;;;;;;5055833;28;19905;-78
2022/06/04 07:31:45;;;;;;;;;;;;;;;;;;5055217;28;19905;-78
2022/06/04 07:34:11;;;;;;;;;;;;;;;;;;5055081;28;19951;-78
2022/06/04 07:36:36;;;;;;;;;;;;;;;;;;5054341;28;19904;-79
2022/06/04 07:39:02;;;;;;;;;;;;;;;;;;5055105;28;19909;-78
2022/06/04 07:41:28;;;;;;;;;;;;;;;;;;5056139;28;19971;-78
2022/06/04 07:43:54;;;;;;;;;;;;;;;;;;5055981;28;19935;-76
2022/06/04 07:46:20;;;;;;;;;;;;;;;;;;5058115;28;19904;-77
2022/06/04 07:48:46;;;;;;;;;;;;;;;;;;5056561;28;19909;-78
2022/06/04 07:51:12;;;;;;;;;;;;;;;;;;5055752;28;19998;-78
2022/06/04 07:53:38;;;;;;;;;;;;;;;;;;5056346;28;19908;-78
2022/06/04 07:56:04;;;;;;;;;;;;;;;;;;5057812;28;19905;-77
2022/06/04 07:58:30;;;;;;;;;;;;;;;;;;5053707;28;19905;-78
2022/06/04 08:00:56;;;;;;;;;;;;;;;;;;5053227;28;19905;-79
2022/06/04 08:03:22;;;;;;;;;;;;;;;;;;5054326;28;19919;-77
2022/06/04 08:05:48;;;;;;;;;;;;;;;;;;5056632;28;19905;-77
2022/06/04 08:08:14;;;;;;;;;;;;;;;;;;5055127;28;20010;-78
2022/06/04 08:10:40;;;;;;;;;;;;;;;;;;5054439;28;19927;-77
2022/06/04 08:13:10;;;;;;;;;;;;;;;;;;5055209;28;20381;-79
2022/06/04 08:15:36;;;;;;;;;;;;;;;;;;5053145;28;19904;-78
2022/06/04 08:18:02;;;;;;;;;;;;;;;;;;5053943;28;19912;-78
2022/06/04 08:20:28;;;;;;;;;;;;;;;;;;5052683;28;19905;-79
2022/06/04 08:22:54;;;;;;;;;;;;;;;;;;5053963;28;20275;-78
2022/06/04 08:25:20;;;;;;;;;;;;;;;;;;5052542;28;19912;-78
2022/06/04 08:27:46;;;;;;;;;;;;;;;;;;5053652;28;19916;-77
2022/06/04 08:30:13;;;;;;;;;;;;;;;;;;5053399;28;19912;-79
2022/06/04 08:32:39;;;;;;;;;;;;;;;;;;5053673;28;19905;-77
2022/06/04 08:35:04;;;;;;;;;;;;;;;;;;5053373;28;20007;-77
2022/06/04 08:37:30;;;;;;;;;;;;;;;;;;5050509;28;19904;-79
2022/06/04 08:39:57;;;;;;;;;;;;;;;;;;5046791;28;19912;-77
2022/06/04 08:42:23;;;;;;;;;;;;;;;;;;5046446;28;20256;-79
2022/06/04 08:44:49;;;;;;;;;;;;;;;;;;5051107;28;19916;-79
2022/06/04 08:47:15;;;;;;;;;;;;;;;;;;5051280;28;19908;-77
2022/06/04 08:49:42;;;;;;;;;;;;;;;;;;5052545;28;19912;-76
2022/06/04 08:52:07;;;;;;;;;;;;;;;;;;5045482;28;19931;-78
2022/06/04 08:57:33;;;;;;;;;;;;;;;;;;5050734;28;19912;-77
2022/06/04 08:59:59;;;;;;;;;;;;;;;;;;5048101;28;19932;-77
2022/06/04 09:02:25;;;;;;;;;;;;;;;;;;5043787;28;20395;-79
2022/06/04 09:04:51;;;;;;;;;;;;;;;;;;5047508;28;19909;-77
2022/06/04 09:07:17;;;;;;;;;;;;;;;;;;5052187;28;19905;-76
2022/06/04 09:09:43;;;;;;;;;;;;;;;;;;5043731;28;19909;-77
2022/06/04 09:12:09;;;;;;;;;;;;;;;;;;5052189;28;19905;-77
2022/06/04 09:14:35;;;;;;;;;;;;;;;;;;5051807;28;20271;-76
2022/06/04 09:17:01;;;;;;;;;;;;;;;;;;5048596;28;19974;-75
2022/06/04 09:19:27;;;;;;;;;;;;;;;;;;5048117;28;19969;-75
2022/06/04 09:21:53;;;;;;;;;;;;;;;;;;5049697;28;19905;-76
2022/06/04 09:24:19;;;;;;;;;;;;;;;;;;5047041;28;19914;-75
2022/06/04 09:26:45;;;;;;;;;;;;;;;;;;5052234;28;20275;-76
2022/06/04 09:29:10;;;;;;;;;;;;;;;;;;5048284;28;19909;-79
2022/06/04 09:31:36;;;;;;;;;;;;;;;;;;5050070;28;19905;-77
2022/06/04 09:34:02;;;;;;;;;;;;;;;;;;5046168;28;19905;-79
2022/06/04 09:36:28;;;;;;;;;;;;;;;;;;5048843;28;19905;-76
2022/06/04 09:38:54;;;;;;;;;;;;;;;;;;5043159;28;20352;-77
2022/06/04 09:41:21;;;;;;;;;;;;;;;;;;5045209;28;19923;-77
2022/06/04 09:43:47;;;;;;;;;;;;;;;;;;5040860;28;19923;-77
2022/06/04 09:46:13;;;;;;;;;;;;;;;;;;5050504;28;19909;-75
2022/06/04 09:48:39;;;;;;;;;;;;;;;;;;5050563;28;19909;-77
2022/06/04 09:51:06;;;;;;;;;;;;;;;;;;5050774;28;19904;-78
2022/06/04 09:53:32;;;;;;;;;;;;;;;;;;5050428;28;19970;-78
2022/06/04 09:55:58;;;;;;;;;;;;;;;;;;5049391;28;20318;-77
2022/06/04 09:58:24;;;;;;;;;;;;;;;;;;5050403;28;19905;-79
2022/06/04 10:00:50;;;;;;;;;;;;;;;;;;5037186;28;19978;-78
2022/06/04 10:03:16;;;;;;;;;;;;;;;;;;5040443;28;20415;-77
2022/06/04 10:05:53;;;;;;;;;;;819.20;1868.80;;;;;;5050520;28;19995;-79
2022/06/04 10:08:22;;;;;;;;;;;819.50;1817.60;;;;;;5051910;28;19987;-80
2022/06/04 10:10:48;;;;;;;;;;;844.80;1817.60;;;;;;5051621;28;19999;-76
2022/06/04 10:16:13;;;;;;;;;;;845.10;1766.40;;;;;;5040632;28;19911;-77
2022/06/04 10:18:39;;;;;;;;;;;;;;;;;;5050695;28;19952;-78
2022/06/04 10:21:19;;;;;;;;;;;819.40;1792.00;;;;;;5051621;28;19944;-78
2022/06/04 10:23:49;;;;;;;;;;;819.70;1766.40;;;;;;5050830;28;20011;-77
2022/06/04 10:26:31;;;;;;;;;;;844.80;1766.40;;;;;;5041309;28;19909;-77
2022/06/04 10:29:09;;;;;;;;;;;845.20;1740.80;;;;;;5047280;28;20362;-80
2022/06/04 10:31:36;;;;;;;;;;;845.70;1689.60;;;;;;5046811;28;20004;-78
2022/06/04 10:34:02;;;;;;;;;;;;;;;;;;5046380;28;19912;-78
2022/06/04 10:36:36;;;;;;;;;;;870.90;1638.40;;;;;;5047356;28;19904;-77
2022/06/04 10:39:28;;;;;;;;;;;871.10;1612.80;;;;;;5044792;28;19909;-78
2022/06/04 10:41:54;;;;;;;;;;;;;;;;;;5011453;28;19917;-77
2022/06/04 10:44:20;;;;;;;;;;;;;;;;;;5050225;28;20359;-80
2022/06/04 10:46:46;;;;;;;;;;;;;;;;;;5052299;28;19905;-77
2022/06/04 10:49:12;;;;;;;;;;;;;;;;;;5051098;28;19921;-78
2022/06/04 10:51:38;;;;;;;;;;;;;;;;;;5048720;28;19909;-79
2022/06/04 10:54:04;;;;;;;;;;;;;;;;;;5052679;28;20359;-77
2022/06/04 10:56:30;;;;;;;;;;;;;;;;;;5049596;28;20347;-76
2022/06/04 10:58:56;;;;;;;;;;;;;;;;;;5054063;28;20566;-77
2022/06/04 11:01:22;;;;;;;;;;;;;;;;;;5055375;28;20332;-78
2022/06/04 11:03:48;;;;;;;;;;;;;;;;;;5050661;28;19936;-79
2022/06/04 11:06:18;;;;;;;;;;;870.60;1689.60;;;;;;5050118;28;19913;-80
2022/06/04 11:08:44;;;;;;;;;;;;;;;;;;5034252;28;19909;-82
2022/06/04 11:11:10;;;;;;;;;;;;;;;;;;5066047;28;19954;-80
2022/06/04 11:13:36;;;;;;;;;;;;;;;;;;5054856;28;20003;-83
2022/06/04 11:16:02;;;;;;;;;;;;;;;;;;5051639;28;20381;-78
2022/06/04 11:18:28;;;;;;;;;;;;;;;;;;5044153;28;19909;-78
2022/06/04 11:20:54;;;;;;;;;;;;;;;;;;5070672;28;19905;-78
2022/06/04 11:23:20;;;;;;;;;;;;;;;;;;5053583;28;20278;-78
2022/06/04 11:25:46;;;;;;;;;;;;;;;;;;5042534;28;19916;-79
2022/06/04 11:28:12;;;;;;;;;;;;;;;;;;5051270;28;20326;-78
2022/06/04 11:30:38;;;;;;;;;;;;;;;;;;5053262;28;19905;-81
2022/06/04 11:33:04;;;;;;;;;;;;;;;;;;5050470;28;20402;-79
2022/06/04 11:35:30;;;;;;;;;;;;;;;;;;5043373;28;20019;-79
2022/06/04 11:37:56;;;;;;;;;;;;;;;;;;5054280;28;19932;-77
2022/06/04 11:40:22;;;;;;;;;;;;;;;;;;5054809;28;19912;-77
2022/06/04 11:42:48;;;;;;;;;;;;;;;;;;5073218;28;19917;-78
2022/06/04 11:45:14;;;;;;;;;;;;;;;;;;5087422;28;20280;-77
2022/06/04 11:47:39;;;;;;;;;;;;;;;;;;5073298;28;20003;-76
2022/06/04 11:50:05;;;;;;;;;;;;;;;;;;5074834;28;19911;-79
2022/06/04 11:52:31;;;;;;;;;;;;;;;;;;5073199;28;19911;-76
2022/06/04 11:54:57;;;;;;;;;;;;;;;;;;5074393;28;19904;-79
2022/06/04 11:57:23;;;;;;;;;;;;;;;;;;5088101;28;19904;-78
2022/06/04 11:59:49;;;;;;;;;;;;;;;;;;5071727;28;19909;-79
2022/06/04 12:02:15;;;;;;;;;;;;;;;;;;5068345;28;19924;-76
2022/06/04 12:04:41;;;;;;;;;;;;;;;;;;5083584;28;20274;-78
2022/06/04 12:07:07;;;;;;;;;;;;;;;;;;5073959;28;19905;-78
2022/06/04 12:09:33;;;;;;;;;;;;;;;;;;5074170;28;19905;-78
2022/06/04 12:11:59;;;;;;;;;;;;;;;;;;5073477;28;19909;-78
2022/06/04 12:14:25;;;;;;;;;;;;;;;;;;5074041;28;19995;-78
2022/06/04 12:16:51;;;;;;;;;;;;;;;;;;5073608;28;19904;-79
2022/06/04 12:25:05;;;;;;;;;;;;;;;;;;5073095;28;19919;-79
2022/06/04 12:27:33;;;;;;;;;;;;;;;;;;5073400;28;19904;-79
2022/06/04 12:29:59;;;;;;;;;;;;;;;;;;5071925;28;20296;-77
2022/06/04 12:32:25;;;;;;;;;;;;;;;;;;5072047;28;19912;-78
2022/06/04 12:34:51;;;;;;;;;;;;;;;;;;5073649;28;19950;-78
2022/06/04 12:37:17;;;;;;;;;;;;;;;;;;5069585;28;19908;-76
2022/06/04 12:39:43;;;;;;;;;;;;;;;;;;5073274;28;19915;-77
2022/06/04 12:42:08;;;;;;;;;;;;;;;;;;5076114;28;19916;-78
2022/06/04 12:44:34;;;;;;;;;;;;;;;;;;5073346;28;20320;-79
2022/06/04 12:47:00;;;;;;;;;;;;;;;;;;5070518;28;20005;-79
2022/06/04 12:49:26;;;;;;;;;;;;;;;;;;5067586;28;19919;-79
2022/06/04 12:51:52;;;;;;;;;;;;;;;;;;5068804;28;19924;-77
2022/06/04 12:54:18;;;;;;;;;;;;;;;;;;5071895;28;19991;-77
2022/06/04 12:56:44;;;;;;;;;;;;;;;;;;5072225;28;19904;-78
2022/06/04 12:59:10;;;;;;;;;;;;;;;;;;5072557;28;19911;-76
2022/06/04 13:01:37;;;;;;;;;;;;;;;;;;5071424;28;19915;-77
2022/06/04 13:04:03;;;;;;;;;;;;;;;;;;5067265;28;19917;-79
2022/06/04 13:06:29;;;;;;;;;;;;;;;;;;5068886;28;19915;-76
2022/06/04 13:08:55;;;;;;;;;;;;;;;;;;5068527;28;19920;-78
2022/06/04 13:11:21;;;;;;;;;;;;;;;;;;5070820;28;20050;-76
2022/06/04 13:13:47;;;;;;;;;;;;;;;;;;5069266;28;21107;-78
2022/06/04 13:16:27;;;;;;;;;;;870.70;1561.60;;;;;;5070432;28;20281;-79
2022/06/04 13:19:13;;;;;;;;;;;870.90;1536.00;;;;;;5069278;28;19904;-75
2022/06/04 13:21:39;;;;;;;;;;;;;;;;;;5057669;28;20392;-77
2022/06/04 13:24:05;;;;;;;;;;;;;;;;;;5071709;28;19912;-77
2022/06/04 13:26:31;;;;;;;;;;;;;;;;;;5070540;28;19904;-77
2022/06/04 13:28:57;;;;;;;;;;;;;;;;;;5072028;28;19950;-77
2022/06/04 13:31:23;;;;;;;;;;;;;;;;;;5070650;28;19904;-78
2022/06/04 13:33:49;;;;;;;;;;;;;;;;;;5070509;28;19931;-79
2022/06/04 13:36:15;;;;;;;;;;;;;;;;;;5069031;28;19912;-78
2022/06/04 13:38:42;;;;;;;;;;;;;;;;;;5069408;28;20362;-77
2022/06/04 13:41:08;;;;;;;;;;;;;;;;;;5069193;28;19924;-81
2022/06/04 13:43:34;;;;;;;;;;;;;;;;;;5069935;28;20495;-77
2022/06/04 13:46:00;;;;;;;;;;;;;;;;;;5071268;28;20015;-79
2022/06/04 13:48:27;;;;;;;;;;;;;;;;;;5071778;28;19904;-78
2022/06/04 13:50:53;;;;;;;;;;;;;;;;;;5071786;28;19939;-80
2022/06/04 13:53:19;;;;;;;;;;;;;;;;;;5071886;28;19971;-78
2022/06/04 13:55:45;;;;;;;;;;;;;;;;;;5089293;28;20299;-78
2022/06/04 13:58:11;;;;;;;;;;;;;;;;;;5071758;28;19954;-78
2022/06/04 14:00:37;;;;;;;;;;;;;;;;;;5071557;28;19904;-77
2022/06/04 14:03:03;;;;;;;;;;;;;;;;;;5071528;28;19943;-78
2022/06/04 14:05:47;;;;;;;;;;;;;;;;;;5071353;28;19950;-77
2022/06/04 14:08:13;;;;;;;;;;;;;;;;;;5070869;28;19948;-80
2022/06/04 14:10:39;;;;;;;;;;;;;;;;;;5072209;28;19904;-79
2022/06/04 14:13:06;;;;;;;;;;;;;;;;;;5071400;28;19905;-78
2022/06/04 14:15:32;;;;;;;;;;;;;;;;;;5070673;28;19904;-77
2022/06/04 14:17:58;;;;;;;;;;;;;;;;;;5071432;28;20274;-76
2022/06/04 14:20:24;;;;;;;;;;;;;;;;;;5071654;28;19909;-77
2022/06/04 14:22:50;;;;;;;;;;;;;;;;;;5073495;28;19957;-77
2022/06/04 14:25:16;;;;;;;;;;;;;;;;;;5075144;28;19983;-79
2022/06/04 14:27:42;;;;;;;;;;;;;;;;;;5073901;28;19998;-81
2022/06/04 14:30:08;;;;;;;;;;;;;;;;;;5076703;28;19905;-79
2022/06/04 14:32:34;;;;;;;;;;;;;;;;;;5075556;28;19912;-79
2022/06/04 14:34:59;;;;;;;;;;;;;;;;;;5075931;28;20378;-79
2022/06/04 14:37:25;;;;;;;;;;;;;;;;;;5075630;28;19904;-81
2022/06/04 14:39:51;;;;;;;;;;;;;;;;;;5074802;28;19911;-77
2022/06/04 14:42:17;;;;;;;;;;;;;;;;;;5075906;28;19924;-78
2022/06/04 14:44:43;;;;;;;;;;;;;;;;;;5077944;28;19974;-78
2022/06/04 14:47:09;;;;;;;;;;;;;;;;;;5086833;28;19930;-79
2022/06/04 14:49:35;;;;;;;;;;;;;;;;;;5075658;28;20735;-80
2022/06/04 14:52:01;;;;;;;;;;;;;;;;;;5075234;28;19961;-77
2022/06/04 14:54:27;;;;;;;;;;;;;;;;;;5074752;28;19949;-77
2022/06/04 14:56:53;;;;;;;;;;;;;;;;;;5060983;28;19904;-79
2022/06/04 14:59:20;;;;;;;;;;;;;;;;;;5075491;28;19912;-80
2022/06/04 15:01:45;;;;;;;;;;;;;;;;;;5087777;28;19927;-79
2022/06/04 15:04:14;;;;;;;;;;;;;;;;;;5076450;28;20359;-80
2022/06/04 15:06:40;;;;;;;;;;;;;;;;;;5067597;28;19896;-79
2022/06/04 15:09:06;;;;;;;;;;;;;;;;;;5084426;28;19908;-79
2022/06/04 15:11:32;;;;;;;;;;;;;;;;;;5072376;28;19969;-79
2022/06/04 15:13:57;;;;;;;;;;;;;;;;;;5066850;28;19920;-79
2022/06/04 15:16:23;;;;;;;;;;;;;;;;;;5068972;28;20417;-78
2022/06/04 15:18:49;;;;;;;;;;;;;;;;;;5074413;28;19926;-79
2022/06/04 15:21:15;;;;;;;;;;;;;;;;;;5062644;28;19909;-81
2022/06/04 15:23:41;;;;;;;;;;;;;;;;;;5074001;28;19927;-80
2022/06/04 15:26:07;;;;;;;;;;;;;;;;;;5083729;28;20346;-79
2022/06/04 15:34:03;;;;;;;;;;;;;;;;;;5081073;28;20455;-78
2022/06/04 15:36:29;;;;;;;;;;;;;;;;;;5074927;28;20338;-77
2022/06/04 15:38:54;;;;;;;;;;;;;;;;;;5071626;28;19970;-76
2022/06/04 15:41:20;;;;;;;;;;;;;;;;;;5069183;28;19962;-77
2022/06/04 15:43:46;;;;;;;;;;;;;;;;;;5074035;28;19912;-81
2022/06/04 15:46:12;;;;;;;;;;;;;;;;;;5069731;28;19913;-82
2022/06/04 15:48:38;;;;;;;;;;;;;;;;;;5066669;28;19908;-81
2022/06/04 15:56:33;;;;;;;;;;;;;;;;;;5068164;28;19955;-77
2022/06/04 15:58:59;;;;;;;;;;;;;;;;;;5081192;28;19904;-77
2022/06/04 16:01:25;;;;;;;;;;;;;;;;;;5070061;28;19908;-77
2022/06/04 16:03:52;;;;;;;;;;;;;;;;;;5070621;28;20011;-78
2022/06/04 16:06:20;;;;;;;;;;;;;;;;;;5072413;28;19908;-77
2022/06/04 16:08:47;;;;;;;;;;;;;;;;;;5087133;28;20325;-77
2022/06/04 16:11:13;;;;;;;;;;;;;;;;;;5073569;28;20284;-80
2022/06/04 16:13:39;;;;;;;;;;;;;;;;;;5064918;28;20004;-77
2022/06/04 16:16:07;;;;;;;;;;;820.10;1433.60;;;;;;5068368;28;20042;-75
2022/06/04 16:18:36;;;;;;;;;;;820.00;1433.60;;;;;;5083474;28;19982;-77
2022/06/04 16:21:14;;;;;;;;;;;844.80;1459.20;;;;;;5067304;28;19961;-77
2022/06/04 16:23:53;;;;;;;;;;;819.50;1459.20;;;;;;5067639;28;19916;-77
2022/06/04 16:26:29;;;;;;;;;;;819.20;1484.80;;;;;;5070060;28;19916;-77
2022/06/04 16:28:56;;;;;;;;;;;819.20;1484.80;;;;;;5084739;28;19958;-78
2022/06/04 16:31:21;;;;;;;;;;;794.40;1510.40;;;;;;5070667;28;19908;-78
2022/06/04 16:33:47;;;;;;;;;;;794.00;1561.60;;;;;;5071098;28;19953;-78
2022/06/04 16:36:14;;;;;;;;;;;793.90;1561.60;;;;;;5071584;28;20667;-76
2022/06/04 16:38:40;;;;;;;;;;;793.90;1561.60;;;;;;5070078;28;19905;-76
2022/06/04 16:44:13;;;;;;;;;;;793.90;1561.60;;;;;;5069186;28;19920;-76
2022/06/04 16:46:42;;;;;;;;;;;794.00;1536.00;;;;;;5082836;28;19909;-78
2022/06/04 16:51:56;;;;;;;;;;;819.20;1510.40;;;;;;5069773;28;20381;-77
2022/06/04 16:54:24;;;;;;;;;;;819.70;1484.80;;;;;;5073034;28;20361;-78
2022/06/04 16:56:49;;;;;;;;;;;819.40;1510.40;;;;;;5073480;28;19944;-78